createdAt,value
2022-09-14T00:00:43.696Z,57.71
2022-09-14T00:03:30.517Z,60.90
2022-09-14T00:06:07.422Z,67.11
2022-09-14T00:08:39.784Z,66.31
2022-09-14T00:11:13.953Z,62.23
2022-09-14T00:13:47.036Z,58.42
2022-09-14T00:16:21.743Z,58.05
2022-09-14T00:18:59.086Z,59.95
2022-09-14T00:21:30.634Z,65.94
2022-09-14T00:24:02.152Z,65.98
2022-09-14T00:26:35.173Z,62.07
2022-09-14T00:29:07.359Z,57.92
2022-09-14T00:31:40.030Z,57.57
2022-09-14T00:34:15.285Z,59.86
2022-09-14T00:36:49.341Z,65.83
2022-09-14T00:39:23.549Z,64.51
2022-09-14T00:41:55.769Z,61.34
2022-09-14T00:45:01.571Z,57.57
2022-09-14T00:47:34.010Z,57.21
2022-09-14T00:50:08.257Z,60.43
2022-09-14T00:52:42.406Z,66.00
2022-09-14T00:55:17.567Z,65.16
2022-09-14T00:57:52.464Z,61.68
2022-09-14T01:00:25.976Z,57.38
2022-09-14T01:02:57.996Z,57.74
2022-09-14T01:05:38.164Z,60.14
2022-09-14T01:08:23.078Z,65.70
2022-09-14T01:11:19.342Z,64.93
2022-09-14T01:13:57.505Z,61.64
2022-09-14T01:16:37.568Z,57.32
2022-09-14T01:19:16.635Z,57.81
2022-09-14T01:21:49.465Z,59.63
2022-09-14T01:24:27.851Z,65.96
2022-09-14T01:27:26.315Z,65.44
2022-09-14T01:30:06.364Z,61.30
2022-09-14T01:32:44.289Z,57.07
2022-09-14T01:35:21.067Z,57.36
2022-09-14T01:37:57.715Z,60.07
2022-09-14T01:40:33.900Z,66.15
2022-09-14T01:43:12.466Z,65.00
2022-09-14T01:45:48.975Z,61.22
2022-09-14T01:48:25.419Z,57.24
2022-09-14T01:51:00.623Z,57.40
2022-09-14T01:53:38.064Z,60.08
2022-09-14T01:56:20.845Z,66.16
2022-09-14T01:59:00.365Z,65.22
2022-09-14T02:01:36.757Z,61.56
2022-09-14T02:04:11.446Z,57.25
2022-09-14T02:06:45.935Z,57.76
2022-09-14T02:09:22.780Z,59.18
2022-09-14T02:11:55.911Z,66.04
2022-09-14T02:14:27.829Z,65.53
2022-09-14T02:16:59.407Z,60.94
2022-09-14T02:19:36.678Z,57.12
2022-09-14T02:22:08.230Z,57.87
2022-09-14T02:24:39.732Z,60.28
2022-09-14T02:27:11.226Z,65.89
2022-09-14T02:29:54.860Z,65.09
2022-09-14T02:32:36.812Z,61.50
2022-09-14T02:35:17.525Z,56.91
2022-09-14T02:37:57.423Z,57.27
2022-09-14T02:40:36.676Z,59.67
2022-09-14T02:43:22.493Z,66.68
2022-09-14T02:46:02.599Z,64.32
2022-09-14T02:48:40.802Z,60.57
2022-09-14T02:51:22.635Z,56.49
2022-09-14T02:53:59.494Z,57.31
2022-09-14T02:56:32.003Z,59.74
2022-09-14T02:59:03.455Z,65.93
2022-09-14T03:01:35.327Z,65.07
2022-09-14T03:04:06.822Z,61.32
2022-09-14T03:06:37.038Z,56.96
2022-09-14T03:09:08.434Z,56.96
2022-09-14T03:11:38.396Z,59.61
2022-09-14T03:14:10.372Z,60.61
2022-09-14T03:16:41.842Z,68.43
2022-09-14T03:19:13.355Z,65.99
2022-09-14T03:21:43.288Z,62.32
2022-09-14T03:24:15.020Z,60.40
2022-09-14T03:26:45.841Z,56.21
2022-09-14T03:29:17.349Z,57.23
2022-09-14T03:31:48.977Z,59.49
2022-09-14T03:34:20.906Z,65.62
2022-09-14T03:36:52.316Z,65.23
2022-09-14T03:39:22.422Z,62.36
2022-09-14T03:41:53.823Z,60.11
2022-09-14T03:44:24.295Z,55.97
2022-09-14T03:46:55.842Z,56.51
2022-09-14T03:49:27.582Z,59.12
2022-09-14T03:51:59.829Z,65.89
2022-09-14T03:54:31.471Z,66.29
2022-09-14T03:57:01.397Z,62.20
2022-09-14T03:59:32.851Z,60.28
2022-09-14T04:02:03.097Z,56.30
2022-09-14T04:04:34.585Z,56.29
2022-09-14T04:07:04.556Z,59.58
2022-09-14T04:09:35.980Z,60.41
2022-09-14T04:12:06.294Z,68.01
2022-09-14T04:14:37.779Z,68.33
2022-09-14T04:17:07.738Z,63.78
2022-09-14T04:19:41.565Z,62.49
2022-09-14T04:22:12.998Z,58.23
2022-09-14T04:24:42.995Z,57.60
2022-09-14T04:27:14.671Z,57.69
2022-09-14T04:29:46.146Z,65.33
2022-09-14T04:32:16.088Z,65.96
2022-09-14T04:34:49.186Z,63.62
2022-09-14T04:37:20.626Z,60.73
2022-09-14T04:39:50.684Z,56.46
2022-09-14T04:42:22.129Z,56.12
2022-09-14T04:44:52.236Z,58.03
2022-09-14T04:47:23.647Z,58.99
2022-09-14T04:49:53.582Z,66.13
2022-09-14T04:52:25.044Z,66.43
2022-09-14T04:54:55.054Z,61.44
2022-09-14T04:57:26.868Z,57.93
2022-09-14T04:59:58.318Z,55.61
2022-09-14T05:02:33.054Z,57.16
2022-09-14T05:05:17.595Z,57.82
2022-09-14T05:07:49.471Z,64.52
2022-09-14T05:10:21.118Z,63.71
2022-09-14T05:12:52.665Z,59.53
2022-09-14T05:15:24.170Z,55.16
2022-09-14T05:17:55.637Z,56.26
2022-09-14T05:20:25.600Z,58.54
2022-09-14T05:22:57.031Z,58.35
2022-09-14T05:25:27.095Z,58.74
2022-09-14T05:27:58.477Z,58.46
2022-09-14T05:30:28.501Z,65.98
2022-09-14T05:33:00.051Z,65.17
2022-09-14T05:35:31.439Z,60.10
2022-09-14T05:38:01.398Z,53.50
2022-09-14T05:40:32.982Z,52.84
2022-09-14T05:43:04.464Z,54.84
2022-09-14T05:45:37.157Z,55.49
2022-09-14T05:48:08.834Z,54.66
2022-09-14T05:50:40.238Z,54.27
2022-09-14T05:53:11.783Z,53.94
2022-09-14T05:55:43.257Z,53.89
2022-09-14T05:58:14.714Z,55.36
2022-09-14T06:00:46.165Z,56.53
2022-09-14T06:03:17.608Z,56.67
2022-09-14T06:05:49.034Z,55.55
2022-09-14T06:08:20.501Z,54.33
2022-09-14T06:10:52.309Z,53.16
2022-09-14T06:13:24.160Z,51.21
2022-09-14T06:15:56.580Z,50.02
2022-09-14T06:18:27.987Z,50.24
2022-09-14T06:20:59.428Z,51.16
2022-09-14T06:23:31.539Z,53.10
2022-09-14T06:26:04.739Z,54.09
2022-09-14T06:28:36.998Z,54.67
2022-09-14T06:31:09.986Z,55.44
2022-09-14T06:33:45.844Z,55.65
2022-09-14T06:36:19.724Z,56.94
2022-09-14T06:38:51.991Z,56.59
2022-09-14T06:41:26.538Z,56.37
2022-09-14T06:43:59.354Z,56.00
2022-09-14T06:46:33.279Z,56.13
2022-09-14T06:49:07.539Z,54.58
2022-09-14T06:51:41.186Z,56.30
2022-09-14T06:54:13.926Z,54.98
2022-09-14T06:56:46.898Z,54.05
2022-09-14T06:59:19.044Z,53.73
2022-09-14T07:01:50.820Z,52.20
2022-09-14T07:04:22.604Z,51.96
2022-09-14T07:06:54.043Z,53.48
2022-09-14T07:09:25.806Z,53.88
2022-09-14T07:11:57.211Z,55.83
2022-09-14T07:14:32.259Z,58.25
2022-09-14T07:17:03.968Z,57.70
2022-09-14T07:19:35.411Z,58.35
2022-09-14T07:22:06.866Z,59.05
2022-09-14T07:24:38.321Z,58.94
2022-09-14T07:27:09.761Z,59.44
2022-09-14T07:29:41.222Z,60.32
2022-09-14T07:32:12.680Z,60.55
2022-09-14T07:34:44.314Z,60.36
2022-09-14T07:37:15.734Z,60.69
2022-09-14T07:39:47.526Z,61.48
2022-09-14T07:42:19.005Z,61.70
2022-09-14T07:44:50.618Z,68.08
2022-09-14T07:47:22.062Z,64.81
2022-09-14T07:49:53.449Z,57.06
2022-09-14T07:52:25.058Z,54.86
2022-09-14T07:54:56.456Z,55.10
2022-09-14T07:57:52.137Z,57.20
2022-09-14T08:00:22.025Z,56.64
2022-09-14T08:02:58.012Z,58.69
2022-09-14T08:05:29.463Z,58.86
2022-09-14T08:08:00.868Z,59.30
2022-09-14T08:10:32.304Z,59.96
2022-09-14T08:13:03.987Z,60.27
2022-09-14T08:15:35.362Z,60.70
2022-09-14T08:18:06.831Z,60.86
2022-09-14T08:20:38.495Z,61.20
2022-09-14T08:23:11.080Z,61.54
2022-09-14T08:25:42.485Z,65.85
2022-09-14T08:28:13.928Z,64.38
2022-09-14T08:30:45.459Z,56.07
2022-09-14T08:33:16.971Z,54.57
2022-09-14T08:36:03.414Z,55.99
2022-09-14T08:38:35.370Z,57.15
2022-09-14T08:41:18.075Z,58.28
2022-09-14T08:43:49.630Z,58.23
2022-09-14T08:46:29.864Z,58.95
2022-09-14T08:49:02.436Z,59.56
2022-09-14T08:51:33.829Z,59.93
2022-09-14T08:54:05.338Z,61.72
2022-09-14T08:56:41.181Z,60.97
2022-09-14T08:59:34.543Z,64.38
2022-09-14T09:02:23.954Z,63.85
2022-09-14T09:04:59.627Z,56.05
2022-09-14T09:07:40.029Z,54.96
2022-09-14T09:10:14.731Z,54.44
2022-09-14T09:12:49.938Z,56.36
2022-09-14T09:15:25.544Z,56.90
2022-09-14T09:18:00.345Z,59.05
2022-09-14T09:20:34.084Z,59.70
2022-09-14T09:23:12.819Z,60.26
2022-09-14T09:25:52.705Z,59.75
2022-09-14T09:28:25.721Z,60.27
2022-09-14T09:31:01.278Z,61.05
2022-09-14T09:33:36.639Z,61.23
2022-09-14T09:36:16.138Z,60.11
2022-09-14T09:38:49.151Z,60.54
2022-09-14T09:41:23.985Z,61.33
2022-09-14T09:44:03.467Z,60.69
2022-09-14T09:46:38.167Z,64.41
2022-09-14T09:49:21.936Z,59.19
2022-09-14T09:51:54.317Z,57.22
2022-09-14T09:54:33.100Z,56.62
2022-09-14T09:57:07.751Z,57.67
2022-09-14T09:59:41.714Z,57.81
2022-09-14T10:02:28.615Z,58.14
2022-09-14T10:05:05.373Z,59.60
2022-09-14T10:07:40.299Z,59.71
2022-09-14T10:10:14.609Z,59.70
2022-09-14T10:12:50.873Z,60.19
2022-09-14T10:15:26.666Z,60.72
2022-09-14T10:18:13.094Z,60.59
2022-09-14T10:20:46.916Z,61.17
2022-09-14T10:23:25.905Z,60.98
2022-09-14T10:26:20.452Z,61.26
2022-09-14T10:28:53.326Z,61.40
2022-09-14T10:31:32.280Z,60.96
2022-09-14T10:34:17.286Z,61.45
2022-09-14T10:36:53.191Z,61.12
2022-09-14T10:39:29.844Z,60.43
2022-09-14T10:42:08.882Z,59.96
2022-09-14T10:44:53.520Z,61.23
2022-09-14T10:47:46.984Z,61.00
2022-09-14T10:50:42.494Z,60.43
2022-09-14T10:53:28.614Z,60.00
2022-09-14T10:56:04.825Z,60.29
2022-09-14T10:58:58.157Z,59.83
2022-09-14T11:01:44.118Z,59.25
2022-09-14T11:04:31.139Z,58.67
2022-09-14T11:07:10.098Z,58.92
2022-09-14T11:09:48.044Z,59.05
2022-09-14T11:12:27.405Z,58.80
2022-09-14T11:15:09.458Z,58.78
2022-09-14T11:17:56.876Z,58.19
2022-09-14T11:20:41.967Z,59.06
2022-09-14T11:23:26.503Z,58.79
2022-09-14T11:26:03.433Z,59.61
2022-09-14T11:28:40.027Z,59.66
2022-09-14T11:31:17.222Z,59.96
2022-09-14T11:33:59.946Z,59.44
2022-09-14T11:36:35.406Z,60.13
2022-09-14T11:39:16.756Z,59.54
2022-09-14T11:41:51.133Z,59.68
2022-09-14T11:44:25.628Z,59.74
2022-09-14T11:47:03.084Z,60.17
2022-09-14T11:49:46.443Z,60.56
2022-09-14T11:52:21.895Z,60.22
2022-09-14T11:54:54.376Z,59.95
2022-09-14T11:57:28.868Z,61.03
2022-09-14T12:00:01.695Z,60.15
2022-09-14T12:03:15.363Z,60.72
2022-09-14T12:05:47.924Z,61.05
2022-09-14T12:08:41.287Z,61.60
2022-09-14T12:11:37.005Z,61.17
2022-09-14T12:14:29.746Z,61.33
2022-09-14T12:20:39.075Z,65.39
2022-09-14T12:23:20.684Z,65.32
2022-09-14T12:26:07.087Z,56.60
2022-09-14T12:28:48.347Z,55.05
2022-09-14T12:31:36.789Z,56.26
2022-09-14T12:34:21.579Z,57.91
2022-09-14T12:37:12.246Z,58.77
2022-09-14T12:40:32.758Z,60.56
2022-09-14T12:43:50.621Z,61.23
2022-09-14T12:46:40.981Z,64.72
2022-09-14T12:49:28.938Z,59.40
2022-09-14T12:52:05.647Z,57.27
2022-09-14T12:54:51.596Z,58.59
2022-09-14T12:57:31.622Z,60.24
2022-09-14T13:00:12.711Z,60.84
2022-09-14T13:02:52.075Z,65.43
2022-09-14T13:05:26.342Z,66.31
2022-09-14T13:07:58.949Z,58.32
2022-09-14T13:10:34.521Z,57.01
2022-09-14T13:13:15.118Z,58.70
2022-09-14T13:15:54.068Z,60.30
2022-09-14T13:18:31.797Z,64.23
2022-09-14T13:21:05.521Z,63.47
2022-09-14T13:23:42.774Z,58.84
2022-09-14T13:26:17.637Z,57.65
2022-09-14T13:28:51.512Z,59.17
2022-09-14T13:31:31.356Z,60.86
2022-09-14T13:34:04.777Z,66.21
2022-09-14T13:36:42.121Z,65.71
2022-09-14T13:39:24.963Z,62.25
2022-09-14T13:41:58.404Z,58.08
2022-09-14T13:44:32.548Z,57.73
2022-09-14T13:47:06.811Z,60.39
2022-09-14T13:49:38.642Z,63.63
2022-09-14T13:52:50.168Z,63.93
2022-09-14T13:55:26.274Z,61.39
2022-09-14T13:58:20.742Z,56.46
2022-09-14T14:01:02.246Z,57.20
2022-09-14T14:03:39.359Z,59.31
2022-09-14T14:06:25.068Z,64.58
2022-09-14T14:09:04.177Z,63.06
2022-09-14T14:11:41.143Z,57.64
2022-09-14T14:14:25.576Z,57.57
2022-09-14T14:17:24.358Z,59.57
2022-09-14T14:19:57.726Z,65.99
2022-09-14T14:22:33.278Z,63.24
2022-09-14T14:25:32.021Z,58.52
2022-09-14T14:28:08.921Z,57.78
2022-09-14T14:30:47.781Z,59.29
2022-09-14T14:33:20.664Z,65.17
2022-09-14T14:36:08.395Z,63.92
2022-09-14T14:38:49.847Z,57.66
2022-09-14T14:41:22.457Z,57.33
2022-09-14T14:43:53.922Z,59.27
2022-09-14T14:46:25.413Z,64.36
2022-09-14T14:48:56.888Z,63.32
2022-09-14T14:51:28.365Z,57.80
2022-09-14T14:54:01.281Z,56.52
2022-09-14T14:56:32.861Z,58.52
2022-09-14T14:59:04.536Z,60.63
2022-09-14T15:01:36.056Z,65.34
2022-09-14T15:04:07.632Z,64.50
2022-09-14T15:06:39.469Z,58.84
2022-09-14T15:09:15.035Z,57.47
2022-09-14T15:11:47.140Z,58.97
2022-09-14T15:14:24.935Z,61.00
2022-09-14T15:17:00.312Z,66.22
2022-09-14T15:19:31.948Z,64.34
2022-09-14T15:22:03.387Z,58.87
2022-09-14T15:24:34.966Z,58.16
2022-09-14T15:27:07.232Z,59.79
2022-09-14T15:29:38.715Z,64.57
2022-09-14T15:32:10.473Z,64.68
2022-09-14T15:34:42.272Z,60.39
2022-09-14T15:37:14.381Z,57.02
2022-09-14T15:39:50.019Z,58.46
2022-09-14T15:42:22.831Z,59.59
2022-09-14T15:44:54.889Z,65.24
2022-09-14T15:47:26.424Z,64.45
2022-09-14T15:49:58.015Z,60.40
2022-09-14T15:52:29.664Z,56.71
2022-09-14T15:55:01.133Z,57.59
2022-09-14T15:57:32.836Z,58.89
2022-09-14T16:00:06.439Z,64.00
2022-09-14T16:02:45.251Z,63.32
2022-09-14T16:05:19.019Z,58.21
2022-09-14T16:07:53.701Z,57.43
2022-09-14T16:10:27.501Z,59.77
2022-09-14T16:12:59.406Z,64.40
2022-09-14T16:15:31.110Z,63.43
2022-09-14T16:18:02.815Z,58.24
2022-09-14T16:20:35.946Z,57.51
2022-09-14T16:23:07.588Z,60.34
2022-09-14T16:25:41.532Z,65.46
2022-09-14T16:28:13.032Z,64.14
2022-09-14T16:30:45.001Z,61.07
2022-09-14T16:33:16.736Z,57.18
2022-09-14T16:35:48.422Z,57.85
2022-09-14T16:38:20.989Z,60.35
2022-09-14T16:40:59.042Z,65.38
2022-09-14T16:43:31.754Z,63.73
2022-09-14T16:46:08.780Z,60.91
2022-09-14T16:48:43.213Z,57.53
2022-09-14T16:51:16.378Z,58.08
2022-09-14T16:53:49.388Z,60.08
2022-09-14T16:56:23.695Z,65.31
2022-09-14T16:58:57.550Z,64.56
2022-09-14T17:01:32.067Z,60.73
2022-09-14T17:04:08.460Z,56.63
2022-09-14T17:06:42.862Z,57.37
2022-09-14T17:09:17.174Z,60.19
2022-09-14T17:11:49.745Z,65.23
2022-09-14T17:14:23.846Z,64.11
2022-09-14T17:16:56.219Z,61.10
2022-09-14T17:19:29.320Z,57.66
2022-09-14T17:22:03.981Z,58.20
2022-09-14T17:24:36.128Z,60.97
2022-09-14T17:27:09.120Z,66.32
2022-09-14T17:29:42.459Z,64.96
2022-09-14T17:32:15.146Z,62.55
2022-09-14T17:34:50.107Z,58.46
2022-09-14T17:37:23.797Z,58.37
2022-09-14T17:39:55.818Z,60.49
2022-09-14T17:42:28.033Z,66.71
2022-09-14T17:45:00.093Z,65.65
2022-09-14T17:47:32.296Z,62.04
2022-09-14T17:50:05.118Z,60.37
2022-09-14T17:52:38.972Z,57.22
2022-09-14T17:55:12.710Z,57.73
2022-09-14T17:57:45.345Z,60.42
2022-09-14T18:00:24.344Z,66.10
2022-09-14T18:02:56.983Z,64.31
2022-09-14T18:05:29.600Z,61.12
2022-09-14T18:08:01.913Z,58.05
2022-09-14T18:10:37.397Z,59.15
2022-09-14T18:13:09.546Z,64.05
2022-09-14T18:15:41.729Z,63.49
2022-09-14T18:18:13.944Z,60.69
2022-09-14T18:20:46.064Z,57.43
2022-09-14T18:23:18.997Z,58.07
2022-09-14T18:25:51.106Z,59.93
2022-09-14T18:28:24.440Z,66.54
2022-09-14T18:31:03.852Z,65.53
2022-09-14T18:33:37.034Z,61.92
2022-09-14T18:36:15.763Z,59.29
2022-09-14T18:38:53.920Z,57.74
2022-09-14T18:41:29.019Z,61.28
2022-09-14T18:44:01.635Z,65.75
2022-09-14T18:46:34.303Z,65.61
2022-09-14T18:49:06.253Z,62.01
2022-09-14T18:51:38.160Z,60.16
2022-09-14T18:54:12.655Z,57.56
2022-09-14T18:56:44.803Z,58.31
2022-09-14T18:59:17.572Z,63.99
2022-09-14T19:01:49.428Z,63.05
2022-09-14T19:04:21.590Z,61.43
2022-09-14T19:06:53.790Z,58.17
2022-09-14T19:09:25.995Z,58.31
2022-09-14T19:11:58.554Z,61.41
2022-09-14T19:14:31.249Z,66.61
2022-09-14T19:17:03.296Z,64.92
2022-09-14T19:19:35.324Z,61.08
2022-09-14T19:22:07.197Z,57.95
2022-09-14T19:24:39.074Z,58.26
2022-09-14T19:27:10.990Z,60.72
2022-09-14T19:29:43.104Z,66.90
2022-09-14T19:32:14.987Z,65.09
2022-09-14T19:34:46.864Z,61.15
2022-09-14T19:37:18.688Z,56.96
2022-09-14T19:39:50.492Z,57.31
2022-09-14T19:42:24.421Z,59.87
2022-09-14T19:44:56.331Z,65.88
2022-09-14T19:47:28.033Z,63.94
2022-09-14T19:50:02.792Z,60.68
2022-09-14T19:52:34.483Z,56.82
2022-09-14T19:55:08.307Z,57.10
2022-09-14T19:57:40.960Z,59.01
2022-09-14T20:00:18.224Z,64.87
2022-09-14T20:02:49.916Z,63.75
2022-09-14T20:05:21.457Z,60.56
2022-09-14T20:07:53.149Z,56.50
2022-09-14T20:10:26.585Z,57.09
2022-09-14T20:13:07.299Z,59.17
2022-09-14T20:15:40.331Z,65.10
2022-09-14T20:18:14.921Z,64.74
2022-09-14T20:20:55.585Z,60.80
2022-09-14T20:23:27.163Z,56.63
2022-09-14T20:26:02.433Z,57.56
2022-09-14T20:28:34.442Z,59.65
2022-09-14T20:31:08.137Z,65.52
2022-09-14T20:33:40.138Z,64.59
2022-09-14T20:36:13.649Z,61.22
2022-09-14T20:38:50.182Z,57.53
2022-09-14T20:41:23.146Z,57.92
2022-09-14T20:43:56.156Z,60.42
2022-09-14T20:46:30.993Z,66.09
2022-09-14T20:49:04.184Z,64.85
2022-09-14T20:51:36.743Z,62.25
2022-09-14T20:54:11.114Z,58.05
2022-09-14T20:56:43.784Z,58.58
2022-09-14T20:59:18.849Z,64.23
2022-09-14T21:01:52.526Z,63.73
2022-09-14T21:04:28.556Z,61.44
2022-09-14T21:07:01.702Z,58.02
2022-09-14T21:09:36.235Z,58.72
2022-09-14T21:12:12.138Z,64.46
2022-09-14T21:14:48.202Z,64.13
2022-09-14T21:17:26.864Z,61.12
2022-09-14T21:20:04.357Z,58.30
2022-09-14T21:22:38.931Z,59.40
2022-09-14T21:25:13.558Z,65.31
2022-09-14T21:27:47.728Z,64.01
2022-09-14T21:30:22.855Z,60.88
2022-09-14T21:32:57.036Z,57.32
2022-09-14T21:35:33.430Z,58.00
2022-09-14T21:38:05.587Z,60.26
2022-09-14T21:40:38.217Z,66.79
2022-09-14T21:43:11.000Z,65.59
2022-09-14T21:45:49.533Z,62.22
2022-09-14T21:48:21.979Z,60.21
2022-09-14T21:51:04.634Z,57.22
2022-09-14T21:53:37.773Z,58.26
2022-09-14T21:56:12.545Z,60.82
2022-09-14T21:58:47.143Z,66.67
2022-09-14T22:01:21.588Z,65.06
2022-09-14T22:03:58.020Z,61.14
2022-09-14T22:06:31.963Z,58.05
2022-09-14T22:09:04.719Z,58.37
2022-09-14T22:11:38.725Z,63.33
2022-09-14T22:14:14.651Z,64.37
2022-09-14T22:16:47.377Z,62.17
2022-09-14T22:19:23.498Z,60.37
2022-09-14T22:21:55.558Z,57.27
2022-09-14T22:24:34.827Z,58.18
2022-09-14T22:27:10.747Z,60.91
2022-09-14T22:29:43.965Z,66.63
2022-09-14T22:32:16.170Z,65.03
2022-09-14T22:34:50.690Z,62.27
2022-09-14T22:37:22.513Z,60.91
2022-09-14T22:39:54.931Z,58.25
2022-09-14T22:42:28.075Z,58.95
2022-09-14T22:45:00.189Z,64.14
2022-09-14T22:47:32.064Z,64.01
2022-09-14T22:50:03.863Z,61.89
2022-09-14T22:52:35.692Z,60.71
2022-09-14T22:55:09.324Z,58.01
2022-09-14T22:57:41.465Z,58.58
2022-09-14T23:00:16.495Z,64.83
2022-09-14T23:02:48.476Z,64.10
2022-09-14T23:05:20.799Z,61.36
2022-09-14T23:07:52.630Z,60.00
2022-09-14T23:10:24.691Z,57.45
2022-09-14T23:12:56.539Z,58.10
2022-09-14T23:15:28.730Z,60.03
2022-09-14T23:18:00.478Z,66.87
2022-09-14T23:20:33.023Z,65.38
2022-09-14T23:23:05.144Z,62.36
2022-09-14T23:25:38.579Z,61.05
2022-09-14T23:28:12.733Z,57.73
2022-09-14T23:30:52.634Z,60.15
2022-09-14T23:33:24.580Z,64.44
2022-09-14T23:35:56.605Z,64.39
2022-09-14T23:38:28.824Z,61.97
2022-09-14T23:41:00.780Z,60.09
2022-09-14T23:43:32.408Z,57.37
2022-09-14T23:46:03.970Z,58.51
2022-09-14T23:48:35.969Z,61.04
2022-09-14T23:51:10.145Z,66.80
2022-09-14T23:53:43.137Z,64.61
2022-09-14T23:56:15.162Z,61.06
2022-09-14T23:58:46.697Z,57.55
